createdAt,value
2019-03-15T00:02:16.339Z,98938.02
2019-03-15T00:04:49.772Z,98954.08
2019-03-15T00:07:23.273Z,98954.34
2019-03-15T00:09:56.629Z,98962.43
2019-03-15T00:12:29.964Z,98968.60
2019-03-15T00:15:04.347Z,98968.22
2019-03-15T00:17:37.747Z,98965.55
2019-03-15T00:20:11.256Z,98974.23
2019-03-15T00:22:44.665Z,98967.45
2019-03-15T00:25:18.151Z,98970.13
2019-03-15T00:27:51.494Z,98984.84
2019-03-15T00:30:24.930Z,98986.26
2019-03-15T00:32:58.631Z,98985.05
2019-03-15T00:35:32.123Z,98993.83
2019-03-15T00:38:05.522Z,98984.54
2019-03-15T00:40:38.969Z,98991.61
2019-03-15T00:43:12.347Z,99004.55
2019-03-15T00:45:45.763Z,99002.55
2019-03-15T00:48:19.133Z,98995.48
2019-03-15T00:50:52.471Z,99006.81
2019-03-15T00:53:26.022Z,99002.00
2019-03-15T00:55:59.362Z,99005.04
2019-03-15T00:58:32.816Z,99008.21
2019-03-15T01:01:06.294Z,99011.66
2019-03-15T01:03:39.719Z,99010.03
2019-03-15T01:06:13.093Z,99013.73
2019-03-15T01:08:46.456Z,99019.13
2019-03-15T01:11:19.803Z,99011.30
2019-03-15T01:13:53.196Z,99018.48
2019-03-15T01:16:26.535Z,99020.59
2019-03-15T01:18:59.904Z,99018.80
2019-03-15T01:21:33.384Z,99020.46
2019-03-15T01:24:06.828Z,99014.66
2019-03-15T01:26:40.224Z,99016.74
2019-03-15T01:29:13.603Z,99013.82
2019-03-15T01:31:46.957Z,99019.48
2019-03-15T01:34:20.363Z,99022.76
2019-03-15T01:36:53.716Z,99021.48
2019-03-15T01:39:27.085Z,99018.72
2019-03-15T01:42:00.486Z,99018.67
2019-03-15T01:44:33.945Z,99017.15
2019-03-15T01:47:07.289Z,99026.20
2019-03-15T01:49:40.736Z,99022.95
2019-03-15T01:52:14.140Z,99021.60
2019-03-15T01:54:47.606Z,99025.20
2019-03-15T01:57:21.007Z,99047.77
2019-03-15T01:59:54.415Z,99051.80
2019-03-15T02:02:27.904Z,99056.45
2019-03-15T02:05:01.306Z,99039.81
2019-03-15T02:07:34.817Z,99056.23
2019-03-15T02:10:09.158Z,99058.14
2019-03-15T02:12:42.614Z,99077.33
2019-03-15T02:15:16.038Z,99065.30
2019-03-15T02:17:49.412Z,99079.23
2019-03-15T02:20:22.848Z,99084.33
2019-03-15T02:22:56.191Z,99090.84
2019-03-15T02:25:29.577Z,99081.89
2019-03-15T02:28:02.939Z,99090.70
2019-03-15T02:30:36.483Z,99089.27
2019-03-15T02:33:09.884Z,99092.42
2019-03-15T02:35:43.255Z,99091.22
2019-03-15T02:38:16.594Z,99091.38
2019-03-15T02:40:49.964Z,99083.09
2019-03-15T02:43:23.296Z,99083.62
2019-03-15T02:45:56.817Z,99080.66
2019-03-15T02:48:30.152Z,99064.11
2019-03-15T02:51:06.477Z,99078.83
2019-03-15T02:53:39.787Z,99075.27
2019-03-15T02:56:13.133Z,99085.80
2019-03-15T02:58:46.465Z,99093.13
2019-03-15T03:01:19.814Z,99084.33
2019-03-15T03:03:53.217Z,99102.37
2019-03-15T03:06:28.055Z,99109.80
2019-03-15T03:09:01.770Z,99110.66
2019-03-15T03:11:35.115Z,99113.09
2019-03-15T03:14:08.522Z,99120.29
2019-03-15T03:16:41.866Z,99115.27
2019-03-15T03:19:15.181Z,99124.89
2019-03-15T03:21:48.530Z,99122.88
2019-03-15T03:24:22.211Z,99122.27
2019-03-15T03:26:55.653Z,99133.78
2019-03-15T03:29:29.039Z,99112.35
2019-03-15T03:32:02.439Z,99115.05
2019-03-15T03:34:35.866Z,99118.23
2019-03-15T03:37:09.180Z,99121.78
2019-03-15T03:39:42.502Z,99125.88
2019-03-15T03:42:16.024Z,99133.29
2019-03-15T03:44:49.450Z,99129.77
2019-03-15T03:47:22.866Z,99140.44
2019-03-15T03:49:56.180Z,99152.69
2019-03-15T03:52:29.598Z,99145.45
2019-03-15T03:55:03.023Z,99149.64
2019-03-15T03:57:36.704Z,99148.41
2019-03-15T04:00:14.882Z,99158.83
2019-03-15T04:02:48.293Z,99164.59
2019-03-15T04:05:21.635Z,99164.77
2019-03-15T04:07:55.011Z,99168.19
2019-03-15T04:10:28.425Z,99177.71
2019-03-15T04:13:01.747Z,99175.59
2019-03-15T04:15:35.173Z,99176.66
2019-03-15T04:18:08.483Z,99181.48
2019-03-15T04:20:42.481Z,99173.61
2019-03-15T04:23:15.878Z,99177.78
2019-03-15T04:25:49.222Z,99176.38
2019-03-15T04:28:22.542Z,99179.02
2019-03-15T04:30:55.895Z,99173.78
2019-03-15T04:33:29.231Z,99179.04
2019-03-15T04:36:02.579Z,99181.20
2019-03-15T04:38:35.882Z,99186.47
2019-03-15T04:41:09.240Z,99189.39
2019-03-15T04:43:42.564Z,99205.23
2019-03-15T04:46:15.904Z,99210.25
2019-03-15T04:48:49.243Z,99216.52
2019-03-15T04:51:22.650Z,99218.23
2019-03-15T04:53:55.927Z,99217.34
2019-03-15T04:56:29.287Z,99216.30
2019-03-15T04:59:02.611Z,99224.83
2019-03-15T05:01:36.122Z,99224.66
2019-03-15T05:04:09.931Z,99219.73
2019-03-15T05:06:43.280Z,99225.00
2019-03-15T05:09:16.675Z,99225.00
2019-03-15T05:11:50.031Z,99238.11
2019-03-15T05:14:23.388Z,99230.97
2019-03-15T05:16:56.817Z,99226.80
2019-03-15T05:19:30.183Z,99233.80
2019-03-15T05:22:03.577Z,99231.69
2019-03-15T05:24:36.926Z,99216.55
2019-03-15T05:27:10.370Z,99222.77
2019-03-15T05:29:43.740Z,99221.60
2019-03-15T05:32:17.078Z,99225.84
2019-03-15T05:34:50.392Z,99223.27
2019-03-15T05:37:23.780Z,99222.89
2019-03-15T05:39:57.146Z,99223.99
2019-03-15T05:42:30.519Z,99234.36
2019-03-15T05:45:04.879Z,99228.09
2019-03-15T05:47:38.291Z,99226.81
2019-03-15T05:50:12.920Z,99233.34
2019-03-15T05:52:46.277Z,99239.11
2019-03-15T05:55:19.601Z,99232.17
2019-03-15T05:57:52.944Z,99239.27
2019-03-15T06:00:26.258Z,99242.05
2019-03-15T06:02:59.631Z,99243.13
2019-03-15T06:05:32.964Z,99244.70
2019-03-15T06:08:06.348Z,99247.41
2019-03-15T06:10:39.668Z,99237.32
2019-03-15T06:13:13.049Z,99230.03
2019-03-15T06:15:46.368Z,99220.27
2019-03-15T06:18:19.708Z,99226.98
2019-03-15T06:20:53.026Z,99229.20
2019-03-15T06:23:26.367Z,99232.31
2019-03-15T06:25:59.716Z,99237.56
2019-03-15T06:28:33.202Z,99244.79
2019-03-15T06:31:06.643Z,99242.58
2019-03-15T06:33:39.986Z,99230.81
2019-03-15T06:36:13.320Z,99235.27
2019-03-15T06:38:46.741Z,99228.55
2019-03-15T06:41:20.083Z,99218.14
2019-03-15T06:43:53.514Z,99221.80
2019-03-15T06:46:26.832Z,99220.08
2019-03-15T06:49:00.187Z,99219.09
2019-03-15T06:51:33.596Z,99216.20
2019-03-15T06:54:11.713Z,99209.19
2019-03-15T06:56:42.284Z,99212.20
2019-03-15T06:59:15.674Z,99212.07
2019-03-15T07:01:49.000Z,99205.38
2019-03-15T07:04:23.987Z,99199.43
2019-03-15T07:06:57.311Z,99202.63
2019-03-15T07:09:31.071Z,99200.13
2019-03-15T07:12:09.140Z,99191.40
2019-03-15T07:14:39.517Z,99185.51
2019-03-15T07:17:12.859Z,99189.28
2019-03-15T07:19:46.189Z,99190.63
2019-03-15T07:22:20.120Z,99191.15
2019-03-15T07:24:53.593Z,99201.40
2019-03-15T07:27:26.933Z,99206.29
2019-03-15T07:30:00.552Z,99190.56
2019-03-15T07:32:33.987Z,99195.13
2019-03-15T07:35:07.672Z,99199.89
2019-03-15T07:37:41.095Z,99196.70
2019-03-15T07:40:14.416Z,99188.92
2019-03-15T07:42:47.855Z,99193.37
2019-03-15T07:45:21.168Z,99194.41
2019-03-15T07:47:54.515Z,99195.88
2019-03-15T07:50:27.828Z,99187.60
2019-03-15T07:53:01.195Z,99177.62
2019-03-15T07:55:34.534Z,99164.27
2019-03-15T07:58:07.911Z,99167.50
2019-03-15T08:00:41.232Z,99158.61
2019-03-15T08:03:14.585Z,99158.06
2019-03-15T08:05:47.972Z,99159.93
2019-03-15T08:08:21.353Z,99160.89
2019-03-15T08:10:55.187Z,99156.69
2019-03-15T08:13:28.573Z,99154.77
2019-03-15T08:16:01.964Z,99152.53
2019-03-15T08:18:35.403Z,99153.54
2019-03-15T08:21:08.788Z,99155.86
2019-03-15T08:23:42.154Z,99156.23
2019-03-15T08:26:15.476Z,99160.24
2019-03-15T08:28:48.845Z,99157.47
2019-03-15T08:31:23.457Z,99167.25
2019-03-15T08:33:56.941Z,99156.38
2019-03-15T08:36:30.321Z,99158.51
2019-03-15T08:39:04.742Z,99156.32
2019-03-15T08:41:38.094Z,99162.72
2019-03-15T08:44:11.440Z,99160.24
2019-03-15T08:46:44.764Z,99160.30
2019-03-15T08:49:18.160Z,99154.16
2019-03-15T08:52:03.294Z,99151.06
2019-03-15T08:54:26.634Z,99143.36
2019-03-15T08:56:59.975Z,99143.91
2019-03-15T08:59:33.328Z,99146.23
2019-03-15T09:02:06.651Z,99157.73
2019-03-15T09:04:40.016Z,99153.36
2019-03-15T09:07:13.335Z,99152.85
2019-03-15T09:09:46.708Z,99139.54
2019-03-15T09:12:20.024Z,99143.36
2019-03-15T09:14:53.378Z,99125.83
2019-03-15T09:17:26.695Z,99116.95
2019-03-15T09:20:00.040Z,99112.27
2019-03-15T09:22:33.360Z,99118.89
2019-03-15T09:25:19.447Z,99116.46
2019-03-15T09:27:46.465Z,99116.77
2019-03-15T09:30:24.171Z,99115.14
2019-03-15T09:32:54.877Z,99109.76
2019-03-15T09:35:28.305Z,99105.21
2019-03-15T09:38:01.663Z,99091.88
2019-03-15T09:40:35.050Z,99092.91
2019-03-15T09:43:08.337Z,99087.78
2019-03-15T09:45:41.682Z,99080.22
2019-03-15T09:48:15.002Z,99070.54
2019-03-15T09:50:51.536Z,99066.85
2019-03-15T09:53:23.392Z,99064.17
2019-03-15T09:55:57.625Z,99069.10
2019-03-15T09:58:30.943Z,99068.23
2019-03-15T10:01:04.605Z,99060.23
2019-03-15T10:03:38.390Z,99052.26
2019-03-15T10:06:15.692Z,99039.96
2019-03-15T10:08:46.852Z,99037.97
2019-03-15T10:11:20.159Z,99036.59
2019-03-15T10:13:53.512Z,99031.72
2019-03-15T10:16:26.870Z,99024.80
2019-03-15T10:19:00.217Z,99017.80
2019-03-15T10:21:33.600Z,99028.34
2019-03-15T10:24:06.958Z,99033.75
2019-03-15T10:26:40.272Z,99024.77
2019-03-15T10:29:15.716Z,99024.47
2019-03-15T10:31:48.739Z,99004.39
2019-03-15T10:34:22.223Z,99012.89
2019-03-15T10:36:55.526Z,98993.56
2019-03-15T10:39:28.878Z,98991.16
2019-03-15T10:42:02.219Z,98980.80
2019-03-15T10:44:35.641Z,98981.93
2019-03-15T10:47:08.962Z,98971.30
2019-03-15T10:49:42.507Z,98972.20
2019-03-15T10:52:15.961Z,98954.09
2019-03-15T10:54:49.539Z,98946.81
2019-03-15T10:57:22.868Z,98923.63
2019-03-15T10:59:56.227Z,98921.31
2019-03-15T11:02:29.551Z,98927.31
2019-03-15T11:05:02.918Z,98913.42
2019-03-15T11:07:36.247Z,98916.81
2019-03-15T11:10:11.121Z,98921.55
2019-03-15T11:12:44.480Z,98908.48
2019-03-15T11:15:17.907Z,98901.80
2019-03-15T11:17:51.276Z,98884.12
2019-03-15T11:20:24.690Z,98887.10
2019-03-15T11:22:58.015Z,98889.75
2019-03-15T11:25:31.385Z,98889.75
2019-03-15T11:28:04.704Z,98884.70
2019-03-15T11:30:38.054Z,98862.20
2019-03-15T11:33:11.369Z,98845.73
2019-03-15T11:35:44.727Z,98841.30
2019-03-15T11:38:18.082Z,98835.98
2019-03-15T11:40:51.418Z,98823.41
2019-03-15T11:43:24.748Z,98808.83
2019-03-15T11:45:58.101Z,98814.70
2019-03-15T11:48:31.461Z,98806.27
2019-03-15T11:51:04.814Z,98806.42
2019-03-15T11:53:38.131Z,98796.09
2019-03-15T11:56:11.638Z,98779.94
2019-03-15T11:58:44.946Z,98785.77
2019-03-15T12:01:18.313Z,98768.03
2019-03-15T12:03:53.253Z,98760.42
2019-03-15T12:06:27.066Z,98770.02
2019-03-15T12:09:00.351Z,98763.85
2019-03-15T12:11:33.804Z,98779.08
2019-03-15T12:14:07.190Z,98764.51
2019-03-15T12:16:40.594Z,98752.28
2019-03-15T12:19:13.918Z,98739.15
2019-03-15T12:21:47.294Z,98754.69
2019-03-15T12:24:20.725Z,98738.65
2019-03-15T12:26:54.330Z,98743.50
2019-03-15T12:29:27.828Z,98735.41
2019-03-15T12:32:01.171Z,98736.20
2019-03-15T12:34:34.516Z,98729.40
2019-03-15T12:37:07.949Z,98725.77
2019-03-15T12:39:41.281Z,98704.30
2019-03-15T12:42:14.695Z,98706.44
2019-03-15T12:44:48.025Z,98704.14
2019-03-15T12:47:21.382Z,98698.56
2019-03-15T12:49:54.695Z,98695.16
2019-03-15T12:52:28.176Z,98684.20
2019-03-15T12:55:03.504Z,98683.13
2019-03-15T12:57:37.404Z,98684.70
2019-03-15T13:00:14.343Z,98682.36
2019-03-15T13:02:48.046Z,98679.53
2019-03-15T13:05:21.519Z,98675.05
2019-03-15T13:07:54.841Z,98688.67
2019-03-15T13:10:28.195Z,98667.69
2019-03-15T13:13:01.754Z,98681.49
2019-03-15T13:15:35.116Z,98684.19
2019-03-15T13:18:08.427Z,98668.48
2019-03-15T13:20:42.341Z,98665.88
2019-03-15T13:23:15.653Z,98652.25
2019-03-15T13:25:49.369Z,98650.51
2019-03-15T13:28:22.838Z,98650.60
2019-03-15T13:30:56.261Z,98646.73
2019-03-15T13:33:29.583Z,98660.31
2019-03-15T13:36:02.937Z,98655.20
2019-03-15T13:38:36.293Z,98642.22
2019-03-15T13:41:09.641Z,98643.16
2019-03-15T13:43:42.966Z,98646.81
2019-03-15T13:46:16.334Z,98631.17
2019-03-15T13:48:49.643Z,98642.59
2019-03-15T13:51:23.062Z,98625.59
2019-03-15T13:53:56.452Z,98617.19
2019-03-15T13:56:29.804Z,98615.17
2019-03-15T13:59:03.205Z,98619.75
2019-03-15T14:01:36.535Z,98616.08
2019-03-15T14:04:10.001Z,98621.89
2019-03-15T14:06:43.373Z,98616.33
2019-03-15T14:09:16.698Z,98624.25
2019-03-15T14:11:50.258Z,98630.97
2019-03-15T14:14:23.588Z,98631.05
2019-03-15T14:16:56.948Z,98627.66
2019-03-15T14:19:30.262Z,98627.47
2019-03-15T14:22:05.981Z,98631.86
2019-03-15T14:24:38.654Z,98620.45
2019-03-15T14:27:12.039Z,98628.83
2019-03-15T14:29:45.345Z,98673.29
2019-03-15T14:32:18.714Z,98668.56
2019-03-15T14:34:52.103Z,98672.43
2019-03-15T14:37:25.527Z,98705.22
2019-03-15T14:39:58.893Z,98671.41
2019-03-15T14:42:32.298Z,98675.42
2019-03-15T14:45:08.809Z,98679.39
2019-03-15T14:47:42.154Z,98675.98
2019-03-15T14:50:15.565Z,98676.11
2019-03-15T14:52:49.100Z,98681.25
2019-03-15T14:55:22.409Z,98680.86
2019-03-15T14:57:55.745Z,98689.95
2019-03-15T15:00:29.340Z,98702.99
2019-03-15T15:03:02.768Z,98696.45
2019-03-15T15:05:36.182Z,98691.86
2019-03-15T15:08:09.527Z,98694.12
2019-03-15T15:10:42.879Z,98691.50
2019-03-15T15:13:16.220Z,98686.12
2019-03-15T15:15:49.568Z,98691.06
2019-03-15T15:18:22.928Z,98692.55
2019-03-15T15:20:56.242Z,98694.77
2019-03-15T15:23:29.627Z,98690.37
2019-03-15T15:26:02.958Z,98677.42
2019-03-15T15:28:36.294Z,98681.75
2019-03-15T15:31:09.622Z,98680.41
2019-03-15T15:33:43.030Z,98685.42
2019-03-15T15:36:16.413Z,98688.61
2019-03-15T15:38:49.768Z,98691.12
2019-03-15T15:41:23.097Z,98680.77
2019-03-15T15:43:56.439Z,98694.94
2019-03-15T15:46:29.754Z,98708.50
2019-03-15T15:49:03.100Z,98704.08
2019-03-15T15:51:36.449Z,98711.92
2019-03-15T15:54:09.805Z,98702.05
2019-03-15T15:56:43.129Z,98711.53
2019-03-15T15:59:16.469Z,98704.31
2019-03-15T16:01:49.790Z,98706.68
2019-03-15T16:04:23.140Z,98699.30
2019-03-15T16:06:56.452Z,98696.71
2019-03-15T16:09:29.829Z,98704.94
2019-03-15T16:12:03.144Z,98704.71
2019-03-15T16:14:36.483Z,98710.25
2019-03-15T16:17:09.829Z,98712.38
2019-03-15T16:19:43.171Z,98708.94
2019-03-15T16:22:16.486Z,98732.52
2019-03-15T16:24:49.832Z,98712.09
2019-03-15T16:27:23.245Z,98714.94
2019-03-15T16:29:56.550Z,98719.73
2019-03-15T16:32:29.909Z,98737.00
2019-03-15T16:35:03.384Z,98735.53
2019-03-15T16:37:36.735Z,98732.71
2019-03-15T16:40:11.493Z,98723.37
2019-03-15T16:42:44.914Z,98733.63
2019-03-15T16:45:29.332Z,98731.53
2019-03-15T16:48:02.682Z,98738.45
2019-03-15T16:50:36.016Z,98735.69
2019-03-15T16:53:09.357Z,98738.57
2019-03-15T16:55:42.706Z,98748.59
2019-03-15T16:58:16.055Z,98749.67
2019-03-15T17:00:49.396Z,98763.02
2019-03-15T17:03:22.898Z,98762.72
2019-03-15T17:05:56.204Z,98787.91
2019-03-15T17:08:29.582Z,98786.69
2019-03-15T17:11:02.979Z,98792.61
2019-03-15T17:13:36.327Z,98798.53
2019-03-15T17:16:09.831Z,98801.91
2019-03-15T17:18:43.154Z,98796.08
2019-03-15T17:21:16.468Z,98776.88
2019-03-15T17:23:49.891Z,98802.11
2019-03-15T17:26:23.210Z,98801.90
2019-03-15T17:28:58.918Z,98809.92
2019-03-15T17:31:31.579Z,98808.88
2019-03-15T17:34:05.003Z,98825.77
2019-03-15T17:36:38.353Z,98817.21
2019-03-15T17:39:11.694Z,98833.30
2019-03-15T17:41:45.119Z,98832.33
2019-03-15T17:44:18.423Z,98842.95
2019-03-15T17:46:51.834Z,98841.38
2019-03-15T17:49:25.199Z,98851.31
2019-03-15T17:51:58.598Z,98861.82
2019-03-15T17:54:31.942Z,98853.03
2019-03-15T17:57:05.382Z,98858.19
2019-03-15T17:59:38.713Z,98869.91
2019-03-15T18:02:12.159Z,98876.97
2019-03-15T18:04:45.594Z,98887.09
2019-03-15T18:07:18.918Z,98890.61
2019-03-15T18:09:52.255Z,98899.03
2019-03-15T18:12:25.641Z,98898.44
2019-03-15T18:14:58.987Z,98908.10
2019-03-15T18:17:32.299Z,98901.21
2019-03-15T18:20:08.258Z,98913.52
2019-03-15T18:22:41.595Z,98927.45
2019-03-15T18:25:15.025Z,98914.85
2019-03-15T18:27:48.705Z,98928.56
2019-03-15T18:30:22.045Z,98946.50
2019-03-15T18:32:55.369Z,98929.44
2019-03-15T18:35:34.017Z,98924.45
2019-03-15T18:38:03.779Z,98926.23
2019-03-15T18:40:38.872Z,98930.54
2019-03-15T18:43:12.236Z,98951.05
2019-03-15T18:45:45.620Z,98949.54
2019-03-15T18:48:19.021Z,98960.88
2019-03-15T18:50:52.445Z,98964.16
2019-03-15T18:53:25.764Z,98978.05
2019-03-15T18:55:59.116Z,98968.11
2019-03-15T18:58:32.433Z,98975.17
2019-03-15T19:01:05.853Z,98982.03
2019-03-15T19:03:39.242Z,98975.41
2019-03-15T19:06:12.595Z,98967.34
2019-03-15T19:08:45.910Z,98983.41
2019-03-15T19:11:19.271Z,98994.94
2019-03-15T19:13:52.696Z,99001.83
2019-03-15T19:16:26.025Z,99007.17
2019-03-15T19:18:59.519Z,99012.20
2019-03-15T19:21:32.835Z,99008.45
2019-03-15T19:24:06.185Z,99017.52
2019-03-15T19:26:39.589Z,99027.64
2019-03-15T19:29:12.923Z,99032.23
2019-03-15T19:31:46.249Z,99035.73
2019-03-15T19:34:19.587Z,99027.95
2019-03-15T19:36:52.905Z,99036.31
2019-03-15T19:39:26.285Z,99047.36
2019-03-15T19:41:59.601Z,99050.61
2019-03-15T19:44:32.973Z,99061.89
2019-03-15T19:47:06.417Z,99064.52
2019-03-15T19:49:39.775Z,99067.50
2019-03-15T19:52:13.111Z,99071.72
2019-03-15T19:54:59.514Z,99073.75
2019-03-15T19:57:21.629Z,99078.37
2019-03-15T20:00:06.968Z,99074.78
2019-03-15T20:02:30.124Z,99086.08
2019-03-15T20:05:04.167Z,99090.69
2019-03-15T20:07:38.134Z,99085.95
2019-03-15T20:10:16.111Z,99092.54
2019-03-15T20:12:48.242Z,99106.32
2019-03-15T20:15:21.627Z,99117.97
2019-03-15T20:17:54.945Z,99100.04
2019-03-15T20:20:28.367Z,99121.55
2019-03-15T20:23:01.717Z,99111.39
2019-03-15T20:25:35.133Z,99122.34
2019-03-15T20:28:08.513Z,99123.13
2019-03-15T20:30:51.318Z,99116.41
2019-03-15T20:33:16.894Z,99116.63
2019-03-15T20:35:52.039Z,99127.97
2019-03-15T20:38:25.298Z,99137.11
2019-03-15T20:40:58.799Z,99136.91
2019-03-15T20:43:32.180Z,99143.78
2019-03-15T20:46:05.559Z,99155.05
2019-03-15T20:48:38.886Z,99143.07
2019-03-15T20:51:12.358Z,99142.95
2019-03-15T20:53:45.668Z,99143.44
2019-03-15T20:56:19.038Z,99165.17
2019-03-15T20:58:52.380Z,99155.48
2019-03-15T21:01:25.799Z,99159.43
2019-03-15T21:03:59.115Z,99155.31
2019-03-15T21:06:32.536Z,99172.28
2019-03-15T21:09:07.391Z,99178.87
2019-03-15T21:11:40.753Z,99173.31
2019-03-15T21:14:14.073Z,99178.14
2019-03-15T21:16:47.418Z,99191.08
2019-03-15T21:19:20.745Z,99190.91
2019-03-15T21:21:56.331Z,99215.83
2019-03-15T21:24:29.185Z,99209.50
2019-03-15T21:27:02.609Z,99213.04
2019-03-15T21:29:35.939Z,99208.73
2019-03-15T21:32:09.407Z,99221.63
2019-03-15T21:34:42.888Z,99219.86
2019-03-15T21:37:16.245Z,99215.84
2019-03-15T21:39:49.736Z,99238.53
2019-03-15T21:42:23.052Z,99242.02
2019-03-15T21:44:56.424Z,99224.33
2019-03-15T21:47:29.737Z,99245.55
2019-03-15T21:50:03.982Z,99246.11
2019-03-15T21:52:37.289Z,99245.70
2019-03-15T21:55:10.736Z,99250.27
2019-03-15T21:57:44.041Z,99242.69
2019-03-15T22:00:18.432Z,99248.52
2019-03-15T22:02:51.755Z,99259.98
2019-03-15T22:05:25.109Z,99272.16
2019-03-15T22:07:58.464Z,99279.27
2019-03-15T22:10:31.812Z,99299.31
2019-03-15T22:13:05.165Z,99293.35
2019-03-15T22:15:38.583Z,99300.86
2019-03-15T22:18:11.954Z,99288.78
2019-03-15T22:20:45.302Z,99284.09
2019-03-15T22:23:18.633Z,99281.86
2019-03-15T22:25:52.068Z,99292.89
2019-03-15T22:28:25.383Z,99307.69
2019-03-15T22:30:58.818Z,99306.00
2019-03-15T22:33:32.134Z,99301.73
2019-03-15T22:36:05.678Z,99301.97
2019-03-15T22:38:38.988Z,99316.98
2019-03-15T22:41:12.401Z,99318.70
2019-03-15T22:43:45.720Z,99325.00
2019-03-15T22:46:19.059Z,99322.19
2019-03-15T22:48:52.397Z,99319.33
2019-03-15T22:51:25.741Z,99338.91
2019-03-15T22:53:59.170Z,99331.72
2019-03-15T22:56:32.512Z,99352.17
2019-03-15T22:59:05.824Z,99362.78
2019-03-15T23:01:39.254Z,99361.40
2019-03-15T23:04:12.580Z,99345.56
2019-03-15T23:06:45.994Z,99347.90
2019-03-15T23:09:19.331Z,99339.36
2019-03-15T23:11:52.685Z,99343.56
2019-03-15T23:14:25.999Z,99360.92
2019-03-15T23:16:59.342Z,99358.72
2019-03-15T23:19:32.719Z,99362.13
2019-03-15T23:22:06.112Z,99366.02
2019-03-15T23:24:39.797Z,99377.87
2019-03-15T23:27:13.138Z,99386.03
2019-03-15T23:29:46.749Z,99376.00
2019-03-15T23:32:20.177Z,99380.78
2019-03-15T23:34:54.052Z,99383.27
2019-03-15T23:37:27.406Z,99405.56
2019-03-15T23:40:00.721Z,99393.53
2019-03-15T23:42:34.429Z,99390.16
2019-03-15T23:45:09.680Z,99406.66
2019-03-15T23:47:43.092Z,99389.09
2019-03-15T23:50:16.471Z,99403.91
2019-03-15T23:52:50.076Z,99412.03
2019-03-15T23:55:23.775Z,99413.31
2019-03-15T23:57:57.501Z,99415.24
